createdAt,value
2023-02-12T07:45:38.639Z,4.55
2023-02-12T07:48:40.531Z,4.35
2023-02-12T07:51:42.056Z,4.40
2023-02-12T07:54:43.704Z,4.53
2023-02-12T07:57:47.619Z,5.47
2023-02-12T08:00:49.244Z,4.50
2023-02-12T08:03:51.007Z,5.05
2023-02-12T08:06:54.244Z,5.05
2023-02-12T08:09:55.823Z,5.35
2023-02-12T08:12:57.339Z,4.43
2023-02-12T08:16:07.072Z,4.68
2023-02-12T08:19:17.881Z,4.03
2023-02-12T08:22:21.157Z,3.78
2023-02-12T08:25:22.697Z,3.83
2023-02-12T08:28:24.286Z,4.18
2023-02-12T08:31:27.178Z,3.67
2023-02-12T08:34:30.542Z,4.15
2023-02-12T08:37:32.424Z,3.90
2023-02-12T08:40:33.970Z,3.28
2023-02-12T08:43:35.725Z,2.37
2023-02-12T08:46:38.969Z,3.42
2023-02-12T08:49:40.755Z,3.10
2023-02-12T08:52:43.745Z,2.35
2023-02-12T08:55:49.789Z,2.75
2023-02-12T08:58:51.369Z,3.40
2023-02-12T09:01:53.019Z,1.70
2023-02-12T09:04:54.570Z,2.58
2023-02-12T09:07:56.078Z,2.80
2023-02-12T09:10:57.636Z,2.63
2023-02-12T09:14:02.332Z,2.70
2023-02-12T09:17:03.894Z,2.17
2023-02-12T09:20:05.988Z,2.97
2023-02-12T09:26:11.245Z,2.80
2023-02-12T09:29:12.804Z,2.90
2023-02-12T09:32:14.398Z,2.63
2023-02-12T09:35:16.065Z,2.53
2023-02-12T09:38:17.600Z,2.42
2023-02-12T09:41:38.051Z,2.63
2023-02-12T09:45:15.098Z,3.15
2023-02-12T09:48:41.350Z,2.65
2023-02-12T09:51:44.048Z,2.63
2023-02-12T09:54:46.004Z,2.63
2023-02-12T10:00:49.029Z,2.20
2023-02-12T10:03:51.898Z,3.22
2023-02-12T10:07:12.209Z,2.85
2023-02-12T10:10:44.766Z,2.65
2023-02-12T10:13:55.217Z,2.30
2023-02-12T10:17:14.885Z,2.60
2023-02-12T10:20:47.500Z,2.78
2023-02-12T10:24:07.273Z,2.20
2023-02-12T10:27:17.091Z,2.10
2023-02-12T10:30:20.481Z,2.28
2023-02-12T10:33:30.280Z,2.60
2023-02-12T10:36:37.587Z,2.10
2023-02-12T10:39:42.889Z,2.20
2023-02-12T10:42:45.337Z,2.40
2023-02-12T10:45:46.939Z,2.15
2023-02-12T10:48:49.966Z,2.30
2023-02-12T10:52:09.757Z,2.30
2023-02-12T10:55:32.390Z,2.33
2023-02-12T10:58:33.973Z,2.50
2023-02-12T11:01:37.714Z,2.67
2023-02-12T11:04:40.313Z,2.80
2023-02-12T11:07:49.480Z,2.85
2023-02-12T11:10:50.998Z,3.30
2023-02-12T11:13:58.475Z,2.80
2023-02-12T11:17:00.306Z,2.70
2023-02-12T11:23:30.604Z,2.53
2023-02-12T11:26:32.124Z,2.53
2023-02-12T11:29:33.749Z,2.30
2023-02-12T11:32:35.329Z,2.33
2023-02-12T11:35:36.832Z,2.67
2023-02-12T11:38:39.846Z,2.42
2023-02-12T11:41:41.383Z,2.83
2023-02-12T11:44:51.491Z,1.98
2023-02-12T11:47:53.029Z,2.17
2023-02-12T11:50:56.068Z,1.90
2023-02-12T11:54:01.188Z,1.90
2023-02-12T11:57:02.707Z,2.28
2023-02-12T12:00:06.920Z,2.47
2023-02-12T12:03:35.302Z,2.50
2023-02-12T12:06:41.772Z,2.38
2023-02-12T12:09:49.340Z,1.98
2023-02-12T12:12:58.861Z,2.40
2023-02-12T12:16:26.202Z,2.00
2023-02-12T12:19:52.926Z,2.08
2023-02-12T12:23:01.611Z,2.70
2023-02-12T12:26:31.651Z,2.17
2023-02-12T12:29:45.126Z,2.88
2023-02-12T12:32:47.149Z,2.40
2023-02-12T12:36:03.312Z,2.58
2023-02-12T12:39:26.073Z,2.30
2023-02-12T12:43:00.042Z,2.58
2023-02-12T12:46:15.394Z,2.17
2023-02-12T12:49:30.575Z,2.63
2023-02-12T12:52:39.428Z,2.97
2023-02-12T12:56:22.798Z,2.83
2023-02-12T12:59:35.367Z,2.35
2023-02-12T13:02:55.690Z,2.60
2023-02-12T13:06:18.960Z,2.47
2023-02-12T13:09:23.310Z,2.72
2023-02-12T13:12:43.711Z,2.92
2023-02-12T13:16:09.384Z,2.75
2023-02-12T13:19:43.970Z,3.00
2023-02-12T13:22:48.352Z,2.13
2023-02-12T13:26:42.321Z,2.50
2023-02-12T13:29:52.452Z,2.55
2023-02-12T13:33:07.267Z,2.65
2023-02-12T13:36:10.608Z,3.45
2023-02-12T13:39:34.853Z,2.10
2023-02-12T13:42:57.884Z,2.05
2023-02-12T13:46:22.355Z,2.05
2023-02-12T13:49:35.885Z,1.90
2023-02-12T13:52:54.347Z,2.42
2023-02-12T13:56:02.081Z,2.50
2023-02-12T13:59:03.688Z,2.22
2023-02-12T14:02:33.342Z,2.25
2023-02-12T14:05:35.313Z,1.75
2023-02-12T14:08:38.812Z,2.00
2023-02-12T14:11:48.457Z,2.22
2023-02-12T14:14:50.891Z,2.50
2023-02-12T14:17:52.667Z,2.40
2023-02-12T14:21:10.038Z,2.10
2023-02-12T14:24:36.433Z,3.10
2023-02-12T14:27:45.783Z,7.07
2023-02-12T14:30:47.601Z,3.30
2023-02-12T14:33:50.656Z,2.40
2023-02-12T14:37:18.685Z,2.70
2023-02-12T14:40:36.493Z,3.05
2023-02-12T14:43:56.802Z,2.80
2023-02-12T14:47:06.784Z,2.90
2023-02-12T14:50:20.612Z,2.40
2023-02-12T14:53:24.178Z,3.08
2023-02-12T14:56:25.685Z,3.08
2023-02-12T14:59:27.286Z,3.40
2023-02-12T15:02:30.396Z,2.60
2023-02-12T15:05:34.468Z,2.15
2023-02-12T15:08:39.822Z,2.00
2023-02-12T15:11:50.527Z,2.25
2023-02-12T15:15:06.863Z,2.45
2023-02-12T15:18:29.436Z,2.30
2023-02-12T15:21:34.040Z,2.80
2023-02-12T15:24:35.568Z,3.08
2023-02-12T15:27:37.508Z,2.10
2023-02-12T15:30:39.032Z,3.15
2023-02-12T15:33:41.719Z,2.88
2023-02-12T15:36:44.495Z,3.72
2023-02-12T15:39:46.655Z,3.45
2023-02-12T15:43:04.546Z,2.90
2023-02-12T15:46:07.661Z,2.88
2023-02-12T15:49:19.455Z,2.38
2023-02-12T15:52:24.737Z,2.17
2023-02-12T15:55:28.348Z,2.30
2023-02-12T15:58:32.801Z,2.50
2023-02-12T16:01:35.151Z,2.17
2023-02-12T16:07:39.604Z,2.55
2023-02-12T16:10:52.297Z,1.67
2023-02-12T16:17:00.200Z,1.95
2023-02-12T16:20:19.820Z,3.07
2023-02-12T16:23:23.776Z,3.42
2023-02-12T16:26:25.676Z,6.05
2023-02-12T16:29:27.207Z,3.08
2023-02-12T16:32:32.595Z,3.13
2023-02-12T16:35:34.458Z,2.20
2023-02-12T16:38:43.649Z,3.00
2023-02-12T16:41:53.188Z,3.00
2023-02-12T16:44:55.668Z,2.88
2023-02-12T16:48:07.030Z,3.75
2023-02-12T16:51:23.170Z,4.13
2023-02-12T16:54:29.093Z,4.22
2023-02-12T16:57:30.645Z,4.60
2023-02-12T17:00:32.183Z,4.55
2023-02-12T17:03:34.247Z,5.68
2023-02-12T17:06:35.794Z,10.02
2023-02-12T17:09:37.358Z,8.98
2023-02-12T17:12:51.022Z,6.35
2023-02-12T17:15:57.434Z,4.85
2023-02-12T17:19:00.035Z,5.90
2023-02-12T17:22:02.524Z,6.20
2023-02-12T17:25:04.529Z,4.10
2023-02-12T17:28:06.157Z,4.65
2023-02-12T17:31:11.056Z,4.80
2023-02-12T17:34:12.620Z,3.67
2023-02-12T17:37:14.127Z,9.10
2023-02-12T17:40:16.393Z,14.27
2023-02-12T17:43:17.919Z,10.18
2023-02-12T17:46:21.994Z,6.43
2023-02-12T17:49:23.545Z,6.90
2023-02-12T17:52:25.072Z,6.53
2023-02-12T17:55:26.669Z,6.32
2023-02-12T17:58:28.241Z,6.18
2023-02-12T18:01:29.835Z,6.13
2023-02-12T18:04:33.955Z,5.90
2023-02-12T18:07:35.702Z,4.63
2023-02-12T18:10:41.496Z,5.00
2023-02-12T18:13:43.093Z,5.63
2023-02-12T18:16:44.653Z,5.18
2023-02-12T18:19:48.033Z,5.15
2023-02-12T18:22:50.285Z,7.18
2023-02-12T18:25:51.800Z,7.43
2023-02-12T18:28:54.104Z,6.90
2023-02-12T18:31:55.651Z,7.85
2023-02-12T18:34:57.346Z,6.65
2023-02-12T18:37:59.007Z,6.28
2023-02-12T18:41:00.587Z,6.85
2023-02-12T18:44:02.163Z,7.07
2023-02-12T18:47:03.810Z,6.50
2023-02-12T18:50:06.335Z,6.60
2023-02-12T18:53:07.988Z,5.45
2023-02-12T18:56:10.085Z,5.03
2023-02-12T18:59:13.185Z,5.38
2023-02-12T19:02:14.920Z,5.18
2023-02-12T19:05:17.020Z,4.80
2023-02-12T19:08:18.653Z,4.85
2023-02-12T19:11:20.199Z,5.85
2023-02-12T19:14:22.078Z,4.93
2023-02-12T19:17:23.596Z,6.27
2023-02-12T19:20:25.190Z,6.22
2023-02-12T19:23:26.737Z,4.63
2023-02-12T19:26:28.994Z,5.57
2023-02-12T19:29:30.584Z,6.03
2023-02-12T19:32:32.156Z,7.18
2023-02-12T19:35:36.804Z,6.20
2023-02-12T19:38:38.384Z,6.60
2023-02-12T19:41:42.759Z,4.78
2023-02-12T19:44:44.636Z,5.50
2023-02-12T19:47:46.213Z,4.97
2023-02-12T19:50:47.755Z,4.93
2023-02-12T19:53:49.352Z,4.22
2023-02-12T19:56:52.014Z,4.30
2023-02-12T20:02:55.152Z,4.43
2023-02-12T20:06:10.913Z,3.75
2023-02-12T20:09:12.874Z,10.20
2023-02-12T20:12:14.393Z,7.38
2023-02-12T20:15:15.966Z,3.70
2023-02-12T20:18:17.591Z,3.50
2023-02-12T20:21:23.261Z,3.85
2023-02-12T20:24:26.341Z,6.22
2023-02-12T20:27:27.839Z,7.70
2023-02-12T20:30:29.346Z,9.23
2023-02-12T20:33:30.883Z,8.60
2023-02-12T20:36:33.955Z,9.82
2023-02-12T20:39:35.513Z,8.90
2023-02-12T20:42:37.881Z,8.65
2023-02-12T20:45:39.431Z,8.07
2023-02-12T20:48:41.179Z,7.05
2023-02-12T20:51:43.061Z,5.38
2023-02-12T20:54:46.361Z,6.37
2023-02-12T20:57:49.572Z,6.60
2023-02-12T21:00:51.105Z,7.05
2023-02-12T21:03:53.679Z,6.13
2023-02-12T21:06:55.199Z,6.07
2023-02-12T21:09:56.805Z,6.25
2023-02-12T21:12:58.496Z,5.72
2023-02-12T21:16:06.815Z,7.70
2023-02-12T21:19:08.748Z,5.93
2023-02-12T21:22:10.232Z,5.50
2023-02-12T21:25:11.724Z,5.15
2023-02-12T21:28:13.245Z,4.95
2023-02-12T21:31:16.662Z,4.50
2023-02-12T21:34:20.488Z,4.20
2023-02-12T21:37:22.003Z,5.15
2023-02-12T21:40:23.758Z,4.72
2023-02-12T21:43:25.377Z,4.53
2023-02-12T21:46:27.188Z,4.18
2023-02-12T21:49:28.943Z,3.80
2023-02-12T21:52:30.512Z,3.90
2023-02-12T21:55:32.402Z,3.72
2023-02-12T21:58:34.192Z,4.47
2023-02-12T22:01:37.711Z,4.27
2023-02-12T22:04:39.224Z,4.10
2023-02-12T22:07:40.711Z,3.40
2023-02-12T22:10:42.215Z,4.40
2023-02-12T22:13:43.837Z,4.18
2023-02-12T22:16:45.525Z,3.70
2023-02-12T22:19:47.178Z,3.50
2023-02-12T22:22:48.721Z,3.47
2023-02-12T22:25:50.225Z,3.33
2023-02-12T22:28:57.045Z,4.45
2023-02-12T22:31:58.613Z,3.90
2023-02-12T22:35:00.343Z,4.50
2023-02-12T22:38:02.997Z,3.55
2023-02-12T22:41:05.349Z,3.97
2023-02-12T22:44:07.076Z,4.22
2023-02-12T22:47:09.327Z,3.80
2023-02-12T22:50:11.077Z,3.38
2023-02-12T22:53:12.613Z,2.88
2023-02-12T22:56:14.304Z,3.70
2023-02-12T22:59:15.803Z,3.80
2023-02-12T23:02:17.344Z,4.07
2023-02-12T23:05:18.931Z,4.65
2023-02-12T23:08:20.526Z,3.58
2023-02-12T23:11:24.636Z,3.08
2023-02-12T23:14:26.591Z,3.40
2023-02-12T23:17:28.166Z,3.43
2023-02-12T23:20:29.679Z,3.80
2023-02-12T23:23:31.205Z,2.80
2023-02-12T23:26:32.795Z,3.70
2023-02-12T23:29:35.092Z,3.65
2023-02-12T23:32:36.715Z,4.13
2023-02-12T23:35:38.318Z,3.33
2023-02-12T23:38:39.830Z,3.50
2023-02-12T23:41:41.406Z,3.58
2023-02-12T23:44:43.016Z,3.70
2023-02-12T23:47:44.660Z,3.85
2023-02-12T23:50:48.235Z,3.53
2023-02-12T23:53:50.995Z,3.10
2023-02-12T23:56:52.456Z,2.70
2023-02-12T23:59:54.646Z,4.18
